Gurli — SLEG — position and weather

sailwx.info

Track history (hours):
 
Tides and Currents Weather Stations Pressure Air Temp Water Temp Dewpoint Dewpoint Depression Visibility Wind Speed Wind Dir Waves Ship Positions

Gurli

Last reported at 2014-Oct-21 19:32 UTC. Time now 2014-Oct-21 20:01 UTC.
Position N 59°20' E 018°05'.

Length 21 m.

Type: Passenger vessel. MMSI: 265687640.

Date/timePositionNaut miles runAvg speedWind from/ knotsBaromVisibWave heightAir tempDewpointWater temp
2014-Oct-21 19:32N 59°20' E 018°05'2 2.1
2014-Oct-21 18:31N 59°21' E 018°08'2 2.1
2014-Oct-21 17:32N 59°20' E 018°05'2 2.2
2014-Oct-21 16:30N 59°21' E 018°09'2 2.4
2014-Oct-21 15:32N 59°20' E 018°05'2 2.2
2014-Oct-21 14:28N 59°21' E 018°09'2 2.2
2014-Oct-21 13:23N 59°20' E 018°05'1 1.7
2014-Oct-21 12:33N 59°19' E 018°07'0 0.4
2014-Oct-21 11:30N 59°19' E 018°07'2 1.7
2014-Oct-21 10:25N 59°21' E 018°09'2 2.5
2014-Oct-21 09:33N 59°19' E 018°05'2 1.8
2014-Oct-21 08:32N 59°21' E 018°08'2 1.8
2014-Oct-21 07:31N 59°20' E 018°05'3 2.7
2014-Oct-21 06:33N 59°19' E 018°09'1 0.7
2014-Oct-21 04:30N 59°21' E 018°09'2 2.0
2014-Oct-21 03:17N 59°20' E 018°05'0 0.0
2014-Oct-21 01:23N 59°20' E 018°05'0 0.0
2014-Oct-21 00:23N 59°20' E 018°05'0 0.0
2014-Oct-20 23:23N 59°20' E 018°05'0 0.0
2014-Oct-20 22:26N 59°20' E 018°05'0 0.0
2014-Oct-20 21:24N 59°20' E 018°05'0 0.0
2014-Oct-20 20:24N 59°20' E 018°05'0 0.0
2014-Oct-20 19:26N 59°20' E 018°05'2 2.2
2014-Oct-20 18:31N 59°21' E 018°08'2 2.0
2014-Oct-20 17:33N 59°20' E 018°05'2 2.3
2014-Oct-20 16:29N 59°21' E 018°09'2 2.5
2014-Oct-20 15:32N 59°20' E 018°05'2 1.9
2014-Oct-20 14:33N 59°21' E 018°08'2 1.8
2014-Oct-20 13:33N 59°20' E 018°05'2 1.7
2014-Oct-20 12:33N 59°19' E 018°07'0 0.4
2014-Oct-20 11:33N 59°19' E 018°08'2 1.4
2014-Oct-20 10:23N 59°21' E 018°09'2 2.6
2014-Oct-20 09:32N 59°19' E 018°06'2 1.9
2014-Oct-20 08:24N 59°21' E 018°09'2 2.6
2014-Oct-20 07:29N 59°20' E 018°05'2 2.0
2014-Oct-20 06:18N 59°21' E 018°09'2 2.4
2014-Oct-20 05:32N 59°19' E 018°07'2 0.7
2014-Oct-20 03:16N 59°20' E 018°05'0 0.0
2014-Oct-20 02:28N 59°20' E 018°05'0 0.0
2014-Oct-20 01:28N 59°20' E 018°05'0 0.0
2014-Oct-20 00:22N 59°20' E 018°05'0 0.0
2014-Oct-19 23:31N 59°20' E 018°05'0 0.0
2014-Oct-19 22:26N 59°20' E 018°05'0 0.0
2014-Oct-19 21:23N 59°20' E 018°05'0 0.0
2014-Oct-19 20:23N 59°20' E 018°05'0 0.0
2014-Oct-19 19:23N 59°20' E 018°05'0 0.0
2014-Oct-19 18:29N 59°20' E 018°05'0 0.0
2014-Oct-19 17:29N 59°20' E 018°05'0 0.0
2014-Oct-19 16:20N 59°20' E 018°05'0 0.0
2014-Oct-19 15:32N 59°20' E 018°05'0 0.0
2014-Oct-19 14:14N 59°20' E 018°05'0 0.0
2014-Oct-19 13:29N 59°20' E 018°05'0 0.0
2014-Oct-19 12:29N 59°20' E 018°05'0 0.0
2014-Oct-19 11:29N 59°20' E 018°05'0 0.0
2014-Oct-19 10:23N 59°20' E 018°05'0 0.0
2014-Oct-19 09:23N 59°20' E 018°05'0 0.0
2014-Oct-19 08:23N 59°20' E 018°05'0 0.0
2014-Oct-19 07:11N 59°20' E 018°05'0 0.0
2014-Oct-19 03:14N 59°20' E 018°05'0 0.0
2014-Oct-19 02:23N 59°20' E 018°05'0 0.0
2014-Oct-19 01:23N 59°20' E 018°05'0 0.0
2014-Oct-19 00:23N 59°20' E 018°05'0 0.0
2014-Oct-18 23:32N 59°20' E 018°05'0 0.0
2014-Oct-18 21:29N 59°20' E 018°05'0 0.0
2014-Oct-18 20:29N 59°20' E 018°05'0 0.0
2014-Oct-18 19:26N 59°20' E 018°05'0 0.0
2014-Oct-18 18:23N 59°20' E 018°05'0 0.0
2014-Oct-18 17:32N 59°20' E 018°05'0 0.0
2014-Oct-18 16:32N 59°20' E 018°05'0 0.0
2014-Oct-18 15:32N 59°20' E 018°05'0 0.0
2014-Oct-18 14:26N 59°20' E 018°05'0 0.0
2014-Oct-18 13:26N 59°20' E 018°05'0 0.0
2014-Oct-18 12:23N 59°20' E 018°05'0 0.0
2014-Oct-18 11:08N 59°20' E 018°05'0 0.0
2014-Oct-18 10:26N 59°20' E 018°05'0 0.0
2014-Oct-18 09:26N 59°20' E 018°05'0 0.0
2014-Oct-18 08:32N 59°20' E 018°05'0 0.0
2014-Oct-18 07:32N 59°20' E 018°05'0 0.0
2014-Oct-18 06:29N 59°20' E 018°05'0 0.0
2014-Oct-18 05:17N 59°20' E 018°05'0 0.0
2014-Oct-18 04:26N 59°20' E 018°05'0 0.0
2014-Oct-18 03:26N 59°20' E 018°05'0 0.0
2014-Oct-18 02:23N 59°20' E 018°05'0 0.0
2014-Oct-18 01:32N 59°20' E 018°05'0 0.0
2014-Oct-18 00:32N 59°20' E 018°05'0 0.0
2014-Oct-17 23:29N 59°20' E 018°05'0 0.0
2014-Oct-17 22:29N 59°20' E 018°05'0 0.0
2014-Oct-17 21:26N 59°20' E 018°05'0 0.0
2014-Oct-17 20:23N 59°20' E 018°05'0 0.0
2014-Oct-17 19:32N 59°20' E 018°05'2 2.1
2014-Oct-17 18:32N 59°21' E 018°09'2 2.1
2014-Oct-17 17:30N 59°20' E 018°05'2 2.0
2014-Oct-17 16:33N 59°21' E 018°08'2 1.9
2014-Oct-17 15:33N 59°20' E 018°05'2 2.0
2014-Oct-17 14:31N 59°21' E 018°08'2 1.8
2014-Oct-17 13:23N 59°20' E 018°05'2 2.2
2014-Oct-17 12:29N 59°19' E 018°08'0 0.0
2014-Oct-17 11:33N 59°19' E 018°08'2 1.4
2014-Oct-17 10:24N 59°21' E 018°09'2 2.6
2014-Oct-17 09:33N 59°19' E 018°06'2 1.8
2014-Oct-17 08:32N 59°21' E 018°08'2 1.6
2014-Oct-17 07:22N 59°20' E 018°05'3 2.7
2014-Oct-17 06:26N 59°20' E 018°09'1 1.3
2014-Oct-17 05:33N 59°19' E 018°07'2 0.8
2014-Oct-17 03:26N 59°20' E 018°05'0 0.0
2014-Oct-17 02:23N 59°20' E 018°05'0 0.0
2014-Oct-17 01:23N 59°20' E 018°05'0 0.0
2014-Oct-17 00:32N 59°20' E 018°05'0 0.0
2014-Oct-16 23:29N 59°20' E 018°05'0 0.0
2014-Oct-16 22:23N 59°20' E 018°05'0 0.0
2014-Oct-16 21:32N 59°20' E 018°05'0 0.0
2014-Oct-16 20:20N 59°20' E 018°05'0 0.3
2014-Oct-16 19:29N 59°20' E 018°05'2 2.1
2014-Oct-16 18:32N 59°21' E 018°08'2 1.9
2014-Oct-16 17:32N 59°20' E 018°05'2 2.0
2014-Oct-16 16:33N 59°21' E 018°08'2 2.0
2014-Oct-16 15:33N 59°20' E 018°05'2 1.9
2014-Oct-16 14:33N 59°21' E 018°08'2 1.9
2014-Oct-16 13:33N 59°20' E 018°05'2 2.0
2014-Oct-16 12:33N 59°19' E 018°08'  
Track history (hours):
 
Tides and Currents Weather Stations Pressure Air Temp Water Temp Dewpoint Dewpoint Depression Visibility Wind Speed Wind Dir Waves Ship Positions

Gurli

Last reported at 2014-Oct-21 19:32 UTC. Time now 2014-Oct-21 20:01 UTC.
Position N 59°20' E 018°05'.

Length 21 m.

Type: Passenger vessel. MMSI: 265687640.

Date/timePositionNaut miles runAvg speedWind from/ knotsBaromVisibWave heightAir tempDewpointWater temp
2014-Oct-21 19:32N 59°20' E 018°05'2 2.1
2014-Oct-21 18:31N 59°21' E 018°08'2 2.1
2014-Oct-21 17:32N 59°20' E 018°05'2 2.2
2014-Oct-21 16:30N 59°21' E 018°09'2 2.4
2014-Oct-21 15:32N 59°20' E 018°05'2 2.2
2014-Oct-21 14:28N 59°21' E 018°09'2 2.2
2014-Oct-21 13:23N 59°20' E 018°05'1 1.7
2014-Oct-21 12:33N 59°19' E 018°07'0 0.4
2014-Oct-21 11:30N 59°19' E 018°07'2 1.7
2014-Oct-21 10:25N 59°21' E 018°09'2 2.5
2014-Oct-21 09:33N 59°19' E 018°05'2 1.8
2014-Oct-21 08:32N 59°21' E 018°08'2 1.8
2014-Oct-21 07:31N 59°20' E 018°05'3 2.7
2014-Oct-21 06:33N 59°19' E 018°09'1 0.7
2014-Oct-21 04:30N 59°21' E 018°09'2 2.0
2014-Oct-21 03:17N 59°20' E 018°05'0 0.0
2014-Oct-21 01:23N 59°20' E 018°05'0 0.0
2014-Oct-21 00:23N 59°20' E 018°05'0 0.0
2014-Oct-20 23:23N 59°20' E 018°05'0 0.0
2014-Oct-20 22:26N 59°20' E 018°05'0 0.0
2014-Oct-20 21:24N 59°20' E 018°05'0 0.0
2014-Oct-20 20:24N 59°20' E 018°05'0 0.0
2014-Oct-20 19:26N 59°20' E 018°05'2 2.2
2014-Oct-20 18:31N 59°21' E 018°08'2 2.0
2014-Oct-20 17:33N 59°20' E 018°05'2 2.3
2014-Oct-20 16:29N 59°21' E 018°09'2 2.5
2014-Oct-20 15:32N 59°20' E 018°05'2 1.9
2014-Oct-20 14:33N 59°21' E 018°08'2 1.8
2014-Oct-20 13:33N 59°20' E 018°05'2 1.7
2014-Oct-20 12:33N 59°19' E 018°07'0 0.4
2014-Oct-20 11:33N 59°19' E 018°08'2 1.4
2014-Oct-20 10:23N 59°21' E 018°09'2 2.6
2014-Oct-20 09:32N 59°19' E 018°06'2 1.9
2014-Oct-20 08:24N 59°21' E 018°09'2 2.6
2014-Oct-20 07:29N 59°20' E 018°05'2 2.0
2014-Oct-20 06:18N 59°21' E 018°09'2 2.4
2014-Oct-20 05:32N 59°19' E 018°07'2 0.7
2014-Oct-20 03:16N 59°20' E 018°05'0 0.0
2014-Oct-20 02:28N 59°20' E 018°05'0 0.0
2014-Oct-20 01:28N 59°20' E 018°05'0 0.0
2014-Oct-20 00:22N 59°20' E 018°05'0 0.0
2014-Oct-19 23:31N 59°20' E 018°05'0 0.0
2014-Oct-19 22:26N 59°20' E 018°05'0 0.0
2014-Oct-19 21:23N 59°20' E 018°05'0 0.0
2014-Oct-19 20:23N 59°20' E 018°05'0 0.0
2014-Oct-19 19:23N 59°20' E 018°05'0 0.0
2014-Oct-19 18:29N 59°20' E 018°05'0 0.0
2014-Oct-19 17:29N 59°20' E 018°05'0 0.0
2014-Oct-19 16:20N 59°20' E 018°05'0 0.0
2014-Oct-19 15:32N 59°20' E 018°05'0 0.0
2014-Oct-19 14:14N 59°20' E 018°05'0 0.0
2014-Oct-19 13:29N 59°20' E 018°05'0 0.0
2014-Oct-19 12:29N 59°20' E 018°05'0 0.0
2014-Oct-19 11:29N 59°20' E 018°05'0 0.0
2014-Oct-19 10:23N 59°20' E 018°05'0 0.0
2014-Oct-19 09:23N 59°20' E 018°05'0 0.0
2014-Oct-19 08:23N 59°20' E 018°05'0 0.0
2014-Oct-19 07:11N 59°20' E 018°05'0 0.0
2014-Oct-19 03:14N 59°20' E 018°05'0 0.0
2014-Oct-19 02:23N 59°20' E 018°05'0 0.0
2014-Oct-19 01:23N 59°20' E 018°05'0 0.0
2014-Oct-19 00:23N 59°20' E 018°05'0 0.0
2014-Oct-18 23:32N 59°20' E 018°05'0 0.0
2014-Oct-18 21:29N 59°20' E 018°05'0 0.0
2014-Oct-18 20:29N 59°20' E 018°05'0 0.0
2014-Oct-18 19:26N 59°20' E 018°05'0 0.0
2014-Oct-18 18:23N 59°20' E 018°05'0 0.0
2014-Oct-18 17:32N 59°20' E 018°05'0 0.0
2014-Oct-18 16:32N 59°20' E 018°05'0 0.0
2014-Oct-18 15:32N 59°20' E 018°05'0 0.0
2014-Oct-18 14:26N 59°20' E 018°05'0 0.0
2014-Oct-18 13:26N 59°20' E 018°05'0 0.0
2014-Oct-18 12:23N 59°20' E 018°05'0 0.0
2014-Oct-18 11:08N 59°20' E 018°05'0 0.0
2014-Oct-18 10:26N 59°20' E 018°05'0 0.0
2014-Oct-18 09:26N 59°20' E 018°05'0 0.0
2014-Oct-18 08:32N 59°20' E 018°05'0 0.0
2014-Oct-18 07:32N 59°20' E 018°05'0 0.0
2014-Oct-18 06:29N 59°20' E 018°05'0 0.0
2014-Oct-18 05:17N 59°20' E 018°05'0 0.0
2014-Oct-18 04:26N 59°20' E 018°05'0 0.0
2014-Oct-18 03:26N 59°20' E 018°05'0 0.0
2014-Oct-18 02:23N 59°20' E 018°05'0 0.0
2014-Oct-18 01:32N 59°20' E 018°05'0 0.0
2014-Oct-18 00:32N 59°20' E 018°05'0 0.0
2014-Oct-17 23:29N 59°20' E 018°05'0 0.0
2014-Oct-17 22:29N 59°20' E 018°05'0 0.0
2014-Oct-17 21:26N 59°20' E 018°05'0 0.0
2014-Oct-17 20:23N 59°20' E 018°05'0 0.0
2014-Oct-17 19:32N 59°20' E 018°05'2 2.1
2014-Oct-17 18:32N 59°21' E 018°09'2 2.1
2014-Oct-17 17:30N 59°20' E 018°05'2 2.0
2014-Oct-17 16:33N 59°21' E 018°08'2 1.9
2014-Oct-17 15:33N 59°20' E 018°05'2 2.0
2014-Oct-17 14:31N 59°21' E 018°08'2 1.8
2014-Oct-17 13:23N 59°20' E 018°05'2 2.2
2014-Oct-17 12:29N 59°19' E 018°08'0 0.0
2014-Oct-17 11:33N 59°19' E 018°08'2 1.4
2014-Oct-17 10:24N 59°21' E 018°09'2 2.6
2014-Oct-17 09:33N 59°19' E 018°06'2 1.8
2014-Oct-17 08:32N 59°21' E 018°08'2 1.6
2014-Oct-17 07:22N 59°20' E 018°05'3 2.7
2014-Oct-17 06:26N 59°20' E 018°09'1 1.3
2014-Oct-17 05:33N 59°19' E 018°07'2 0.8
2014-Oct-17 03:26N 59°20' E 018°05'0 0.0
2014-Oct-17 02:23N 59°20' E 018°05'0 0.0
2014-Oct-17 01:23N 59°20' E 018°05'0 0.0
2014-Oct-17 00:32N 59°20' E 018°05'0 0.0
2014-Oct-16 23:29N 59°20' E 018°05'0 0.0
2014-Oct-16 22:23N 59°20' E 018°05'0 0.0
2014-Oct-16 21:32N 59°20' E 018°05'0 0.0
2014-Oct-16 20:20N 59°20' E 018°05'0 0.3
2014-Oct-16 19:29N 59°20' E 018°05'2 2.1
2014-Oct-16 18:32N 59°21' E 018°08'2 1.9
2014-Oct-16 17:32N 59°20' E 018°05'2 2.0
2014-Oct-16 16:33N 59°21' E 018°08'2 2.0
2014-Oct-16 15:33N 59°20' E 018°05'2 1.9
2014-Oct-16 14:33N 59°21' E 018°08'2 1.9
2014-Oct-16 13:33N 59°20' E 018°05'2 2.0
2014-Oct-16 12:33N 59°19' E 018°08'  

Dump ship's entire track history